KAZC

Details ICAO KAZC
Name Colorado City Muni
Region United States
Timezone America/Phoenix (UTC-7.0)
Plans Departing 16
Arriving 15
Stats Elevation 4,873 ft / 1,485 m (AMSL)
Location 36.959900° -113.014000°
Runways 2
Magnetic Variation 10.938° E
Sunrise 2020-07-03 12:18:35 UTC / 2020-07-03 05:18:35 Local
Sunset 2020-07-04 02:56:26 UTC / 2020-07-03 19:56:26 Local
Advertisement - Login to hide

Runways

ID Width Length Bearing (true/mag) Surface Threshold Overrun Markings Lighting
02 60 ft / 18 m 5,107 ft / 1,557 m 27.88° / 16.94° ASPHALT 0 ft / 0 m 0 ft / 0 m VISUAL EDGE THRESHOLD
12 75 ft / 23 m 6,296 ft / 1,919 m 122.68° / 111.74° ASPHALT 0 ft / 0 m 62 ft / 19 m APP EDGE THRESHOLD REIL-OMNI
20 60 ft / 18 m 5,107 ft / 1,557 m 207.88° / 196.94° ASPHALT 0 ft / 0 m 0 ft / 0 m VISUAL EDGE THRESHOLD
30 75 ft / 23 m 6,296 ft / 1,919 m 302.69° / 291.75° ASPHALT 0 ft / 0 m 171 ft / 52 m APP EDGE THRESHOLD REIL-OMNI

Map

Weather


0- 5 10 15 20 25 30 35+ Temperature / °C

Clouds and Precipitation
Forecast for 2020-07-03 18:00 UTC. Updated 10 minutes ago

Ground ~20,000 ft ~40,000 ft Winds

METAR

KAZC 031535Z AUTO 10003KT 10SM CLR 28/08 A3023 RMK AO2

TAF

Not found

Frequencies

Unicom 122.70 MHz CTAF
Recorded 118.37 MHz WX AWOS-3PT
Unicom 122.70 MHz Unicom
Approach 124.20 MHz Los Angeles Approach
Departure 124.20 MHz Los Angeles Departure
Warning: Do not use this data for real-world aviation or navigation. No guarantee of current accuracy is given.